sensor_id;sensor_type;location;lat;lon;timestamp;P1;durP1;ratioP1;P2;durP2;ratioP2
11924;SDS011;6022;48.768;18.608;2024-01-30T00:01:26;0.00;;;0.00;;
11924;SDS011;6022;48.768;18.608;2024-01-30T00:03:54;0.73;;;0.33;;
11924;SDS011;6022;48.768;18.608;2024-01-30T00:06:21;0.00;;;0.00;;
11924;SDS011;6022;48.768;18.608;2024-01-30T00:08:48;0.00;;;0.00;;
11924;SDS011;6022;48.768;18.608;2024-01-30T00:11:16;0.00;;;0.00;;
11924;SDS011;6022;48.768;18.608;2024-01-30T00:13:43;0.00;;;0.00;;
11924;SDS011;6022;48.768;18.608;2024-01-30T00:16:23;0.00;;;0.00;;
11924;SDS011;6022;48.768;18.608;2024-01-30T00:18:52;0.00;;;0.00;;
11924;SDS011;6022;48.768;18.608;2024-01-30T00:21:20;0.00;;;0.00;;
11924;SDS011;6022;48.768;18.608;2024-01-30T00:23:48;0.00;;;0.00;;
11924;SDS011;6022;48.768;18.608;2024-01-30T00:26:15;0.10;;;0.10;;
11924;SDS011;6022;48.768;18.608;2024-01-30T00:28:43;0.00;;;0.00;;
11924;SDS011;6022;48.768;18.608;2024-01-30T00:31:12;0.00;;;0.00;;
11924;SDS011;6022;48.768;18.608;2024-01-30T00:33:40;0.00;;;0.00;;
11924;SDS011;6022;48.768;18.608;2024-01-30T00:36:08;0.33;;;0.33;;
11924;SDS011;6022;48.768;18.608;2024-01-30T00:38:36;0.00;;;0.00;;
11924;SDS011;6022;48.768;18.608;2024-01-30T00:41:04;0.00;;;0.00;;
11924;SDS011;6022;48.768;18.608;2024-01-30T00:43:31;0.00;;;0.00;;
11924;SDS011;6022;48.768;18.608;2024-01-30T00:45:58;0.00;;;0.00;;
11924;SDS011;6022;48.768;18.608;2024-01-30T00:48:26;0.00;;;0.00;;
11924;SDS011;6022;48.768;18.608;2024-01-30T00:50:53;0.00;;;0.00;;
11924;SDS011;6022;48.768;18.608;2024-01-30T00:53:20;0.00;;;0.00;;
11924;SDS011;6022;48.768;18.608;2024-01-30T00:55:48;0.00;;;0.00;;
11924;SDS011;6022;48.768;18.608;2024-01-30T00:58:15;0.00;;;0.00;;
11924;SDS011;6022;48.768;18.608;2024-01-30T01:00:43;0.00;;;0.00;;
11924;SDS011;6022;48.768;18.608;2024-01-30T01:03:10;0.00;;;0.00;;
11924;SDS011;6022;48.768;18.608;2024-01-30T01:05:37;2.87;;;0.73;;
11924;SDS011;6022;48.768;18.608;2024-01-30T01:08:05;0.00;;;0.00;;
11924;SDS011;6022;48.768;18.608;2024-01-30T01:10:33;0.10;;;0.10;;
11924;SDS011;6022;48.768;18.608;2024-01-30T01:13:00;0.00;;;0.00;;
11924;SDS011;6022;48.768;18.608;2024-01-30T01:15:27;0.00;;;0.00;;
11924;SDS011;6022;48.768;18.608;2024-01-30T01:17:56;0.00;;;0.00;;
11924;SDS011;6022;48.768;18.608;2024-01-30T01:20:23;0.40;;;0.40;;
11924;SDS011;6022;48.768;18.608;2024-01-30T01:22:50;0.00;;;0.00;;
11924;SDS011;6022;48.768;18.608;2024-01-30T01:25:19;0.00;;;0.00;;
11924;SDS011;6022;48.768;18.608;2024-01-30T01:27:46;0.00;;;0.00;;
11924;SDS011;6022;48.768;18.608;2024-01-30T01:30:21;0.00;;;0.00;;
11924;SDS011;6022;48.768;18.608;2024-01-30T01:33:21;0.00;;;0.00;;
11924;SDS011;6022;48.768;18.608;2024-01-30T01:35:48;0.00;;;0.00;;
11924;SDS011;6022;48.768;18.608;2024-01-30T01:38:16;0.00;;;0.00;;
11924;SDS011;6022;48.768;18.608;2024-01-30T01:40:43;0.00;;;0.00;;
11924;SDS011;6022;48.768;18.608;2024-01-30T01:43:11;0.00;;;0.00;;
11924;SDS011;6022;48.768;18.608;2024-01-30T01:45:38;0.20;;;0.20;;
11924;SDS011;6022;48.768;18.608;2024-01-30T01:48:05;0.00;;;0.00;;
11924;SDS011;6022;48.768;18.608;2024-01-30T01:50:35;0.00;;;0.00;;
11924;SDS011;6022;48.768;18.608;2024-01-30T01:53:03;0.00;;;0.00;;
11924;SDS011;6022;48.768;18.608;2024-01-30T01:55:34;0.00;;;0.00;;
11924;SDS011;6022;48.768;18.608;2024-01-30T01:58:02;0.00;;;0.00;;
11924;SDS011;6022;48.768;18.608;2024-01-30T02:00:29;0.00;;;0.00;;
11924;SDS011;6022;48.768;18.608;2024-01-30T02:02:57;0.00;;;0.00;;
11924;SDS011;6022;48.768;18.608;2024-01-30T02:05:26;0.00;;;0.00;;
11924;SDS011;6022;48.768;18.608;2024-01-30T02:07:54;0.00;;;0.00;;
11924;SDS011;6022;48.768;18.608;2024-01-30T02:10:22;0.00;;;0.00;;
11924;SDS011;6022;48.768;18.608;2024-01-30T02:12:50;0.87;;;0.57;;
11924;SDS011;6022;48.768;18.608;2024-01-30T02:15:17;1.03;;;0.67;;
11924;SDS011;6022;48.768;18.608;2024-01-30T02:17:44;0.00;;;0.00;;
11924;SDS011;6022;48.768;18.608;2024-01-30T02:20:11;0.00;;;0.00;;
11924;SDS011;6022;48.768;18.608;2024-01-30T02:22:40;0.00;;;0.00;;
11924;SDS011;6022;48.768;18.608;2024-01-30T02:25:09;0.00;;;0.00;;
11924;SDS011;6022;48.768;18.608;2024-01-30T02:27:36;0.30;;;0.30;;
11924;SDS011;6022;48.768;18.608;2024-01-30T02:30:04;0.00;;;0.00;;
11924;SDS011;6022;48.768;18.608;2024-01-30T02:32:32;0.00;;;0.00;;
11924;SDS011;6022;48.768;18.608;2024-01-30T02:34:59;0.00;;;0.00;;
11924;SDS011;6022;48.768;18.608;2024-01-30T02:37:26;0.00;;;0.00;;
11924;SDS011;6022;48.768;18.608;2024-01-30T02:39:53;0.20;;;0.20;;
11924;SDS011;6022;48.768;18.608;2024-01-30T02:42:20;0.00;;;0.00;;
11924;SDS011;6022;48.768;18.608;2024-01-30T02:44:48;0.00;;;0.00;;
11924;SDS011;6022;48.768;18.608;2024-01-30T02:47:15;0.10;;;0.10;;
11924;SDS011;6022;48.768;18.608;2024-01-30T02:49:42;0.97;;;0.97;;
11924;SDS011;6022;48.768;18.608;2024-01-30T02:52:09;0.00;;;0.00;;
11924;SDS011;6022;48.768;18.608;2024-01-30T02:54:36;0.00;;;0.00;;
11924;SDS011;6022;48.768;18.608;2024-01-30T02:57:04;0.00;;;0.00;;
11924;SDS011;6022;48.768;18.608;2024-01-30T02:59:31;0.00;;;0.00;;
11924;SDS011;6022;48.768;18.608;2024-01-30T03:01:59;0.40;;;0.40;;
11924;SDS011;6022;48.768;18.608;2024-01-30T03:04:27;0.00;;;0.00;;
11924;SDS011;6022;48.768;18.608;2024-01-30T03:06:56;0.00;;;0.00;;
11924;SDS011;6022;48.768;18.608;2024-01-30T03:09:24;0.00;;;0.00;;
11924;SDS011;6022;48.768;18.608;2024-01-30T03:11:51;0.00;;;0.00;;
11924;SDS011;6022;48.768;18.608;2024-01-30T03:14:18;0.00;;;0.00;;
11924;SDS011;6022;48.768;18.608;2024-01-30T03:16:45;0.00;;;0.00;;
11924;SDS011;6022;48.768;18.608;2024-01-30T03:19:12;0.00;;;0.00;;
11924;SDS011;6022;48.768;18.608;2024-01-30T03:21:40;0.00;;;0.00;;
11924;SDS011;6022;48.768;18.608;2024-01-30T03:24:07;0.00;;;0.00;;
11924;SDS011;6022;48.768;18.608;2024-01-30T03:26:35;0.00;;;0.00;;
11924;SDS011;6022;48.768;18.608;2024-01-30T03:29:02;3.30;;;0.73;;
11924;SDS011;6022;48.768;18.608;2024-01-30T03:31:30;0.00;;;0.00;;
11924;SDS011;6022;48.768;18.608;2024-01-30T03:33:57;0.00;;;0.00;;
11924;SDS011;6022;48.768;18.608;2024-01-30T03:36:24;0.00;;;0.00;;
11924;SDS011;6022;48.768;18.608;2024-01-30T03:38:52;0.00;;;0.00;;
11924;SDS011;6022;48.768;18.608;2024-01-30T03:41:19;0.00;;;0.00;;
11924;SDS011;6022;48.768;18.608;2024-01-30T03:43:47;0.00;;;0.00;;
11924;SDS011;6022;48.768;18.608;2024-01-30T03:46:14;0.00;;;0.00;;
11924;SDS011;6022;48.768;18.608;2024-01-30T03:48:41;0.00;;;0.00;;
11924;SDS011;6022;48.768;18.608;2024-01-30T03:51:09;0.00;;;0.00;;
11924;SDS011;6022;48.768;18.608;2024-01-30T03:53:41;0.00;;;0.00;;
11924;SDS011;6022;48.768;18.608;2024-01-30T03:56:10;0.00;;;0.00;;
11924;SDS011;6022;48.768;18.608;2024-01-30T03:58:39;0.00;;;0.00;;
11924;SDS011;6022;48.768;18.608;2024-01-30T04:01:07;0.00;;;0.00;;
11924;SDS011;6022;48.768;18.608;2024-01-30T04:03:39;0.00;;;0.00;;
11924;SDS011;6022;48.768;18.608;2024-01-30T04:06:06;0.00;;;0.00;;
11924;SDS011;6022;48.768;18.608;2024-01-30T04:08:35;0.00;;;0.00;;
11924;SDS011;6022;48.768;18.608;2024-01-30T04:11:05;0.00;;;0.00;;
11924;SDS011;6022;48.768;18.608;2024-01-30T04:13:33;1.70;;;0.83;;
11924;SDS011;6022;48.768;18.608;2024-01-30T04:16:00;1.57;;;1.00;;
11924;SDS011;6022;48.768;18.608;2024-01-30T04:18:29;0.00;;;0.00;;
11924;SDS011;6022;48.768;18.608;2024-01-30T04:20:56;0.00;;;0.00;;
11924;SDS011;6022;48.768;18.608;2024-01-30T04:23:23;0.00;;;0.00;;
11924;SDS011;6022;48.768;18.608;2024-01-30T04:25:51;0.00;;;0.00;;
11924;SDS011;6022;48.768;18.608;2024-01-30T04:28:18;0.00;;;0.00;;
11924;SDS011;6022;48.768;18.608;2024-01-30T04:30:45;0.00;;;0.00;;
11924;SDS011;6022;48.768;18.608;2024-01-30T04:33:12;0.00;;;0.00;;
11924;SDS011;6022;48.768;18.608;2024-01-30T04:35:40;0.00;;;0.00;;
11924;SDS011;6022;48.768;18.608;2024-01-30T04:38:07;0.47;;;0.47;;
11924;SDS011;6022;48.768;18.608;2024-01-30T04:40:37;0.00;;;0.00;;
11924;SDS011;6022;48.768;18.608;2024-01-30T04:43:04;0.00;;;0.00;;
11924;SDS011;6022;48.768;18.608;2024-01-30T04:45:31;0.00;;;0.00;;
11924;SDS011;6022;48.768;18.608;2024-01-30T04:47:59;0.00;;;0.00;;
11924;SDS011;6022;48.768;18.608;2024-01-30T04:50:26;0.00;;;0.00;;
11924;SDS011;6022;48.768;18.608;2024-01-30T04:52:53;0.00;;;0.00;;
11924;SDS011;6022;48.768;18.608;2024-01-30T04:55:20;0.00;;;0.00;;
11924;SDS011;6022;48.768;18.608;2024-01-30T04:57:49;0.00;;;0.00;;
11924;SDS011;6022;48.768;18.608;2024-01-30T05:00:22;0.00;;;0.00;;
11924;SDS011;6022;48.768;18.608;2024-01-30T05:02:49;0.00;;;0.00;;
11924;SDS011;6022;48.768;18.608;2024-01-30T05:05:16;0.00;;;0.00;;
11924;SDS011;6022;48.768;18.608;2024-01-30T05:07:43;0.00;;;0.00;;
11924;SDS011;6022;48.768;18.608;2024-01-30T05:10:11;0.00;;;0.00;;
11924;SDS011;6022;48.768;18.608;2024-01-30T05:12:40;0.20;;;0.20;;
11924;SDS011;6022;48.768;18.608;2024-01-30T05:15:08;0.00;;;0.00;;
11924;SDS011;6022;48.768;18.608;2024-01-30T05:17:36;0.00;;;0.00;;
11924;SDS011;6022;48.768;18.608;2024-01-30T05:20:03;0.00;;;0.00;;
11924;SDS011;6022;48.768;18.608;2024-01-30T05:22:34;0.00;;;0.00;;
11924;SDS011;6022;48.768;18.608;2024-01-30T05:25:01;0.00;;;0.00;;
11924;SDS011;6022;48.768;18.608;2024-01-30T05:27:29;0.00;;;0.00;;
11924;SDS011;6022;48.768;18.608;2024-01-30T05:29:59;1.10;;;1.10;;
11924;SDS011;6022;48.768;18.608;2024-01-30T05:32:29;0.00;;;0.00;;
11924;SDS011;6022;48.768;18.608;2024-01-30T05:34:56;0.00;;;0.00;;
11924;SDS011;6022;48.768;18.608;2024-01-30T05:37:24;0.00;;;0.00;;
11924;SDS011;6022;48.768;18.608;2024-01-30T05:39:52;0.00;;;0.00;;
11924;SDS011;6022;48.768;18.608;2024-01-30T05:42:20;0.00;;;0.00;;
11924;SDS011;6022;48.768;18.608;2024-01-30T05:44:50;0.00;;;0.00;;
11924;SDS011;6022;48.768;18.608;2024-01-30T05:47:19;0.00;;;0.00;;
11924;SDS011;6022;48.768;18.608;2024-01-30T05:49:49;0.00;;;0.00;;
11924;SDS011;6022;48.768;18.608;2024-01-30T05:52:17;0.00;;;0.00;;
11924;SDS011;6022;48.768;18.608;2024-01-30T05:54:47;0.57;;;0.57;;
11924;SDS011;6022;48.768;18.608;2024-01-30T05:57:14;0.00;;;0.00;;
11924;SDS011;6022;48.768;18.608;2024-01-30T05:59:42;0.20;;;0.20;;
11924;SDS011;6022;48.768;18.608;2024-01-30T06:02:10;0.00;;;0.00;;
11924;SDS011;6022;48.768;18.608;2024-01-30T06:04:38;0.00;;;0.00;;
11924;SDS011;6022;48.768;18.608;2024-01-30T06:07:08;0.00;;;0.00;;
11924;SDS011;6022;48.768;18.608;2024-01-30T06:09:35;0.20;;;0.20;;
11924;SDS011;6022;48.768;18.608;2024-01-30T06:12:03;0.00;;;0.00;;
11924;SDS011;6022;48.768;18.608;2024-01-30T06:14:32;0.00;;;0.00;;
11924;SDS011;6022;48.768;18.608;2024-01-30T06:16:59;0.00;;;0.00;;
11924;SDS011;6022;48.768;18.608;2024-01-30T06:19:26;0.00;;;0.00;;
11924;SDS011;6022;48.768;18.608;2024-01-30T06:21:54;0.00;;;0.00;;
11924;SDS011;6022;48.768;18.608;2024-01-30T06:24:23;0.00;;;0.00;;
11924;SDS011;6022;48.768;18.608;2024-01-30T06:26:51;0.00;;;0.00;;
11924;SDS011;6022;48.768;18.608;2024-01-30T06:29:18;0.00;;;0.00;;
11924;SDS011;6022;48.768;18.608;2024-01-30T06:31:45;0.10;;;0.10;;
11924;SDS011;6022;48.768;18.608;2024-01-30T06:34:13;0.00;;;0.00;;
11924;SDS011;6022;48.768;18.608;2024-01-30T06:36:43;0.00;;;0.00;;
11924;SDS011;6022;48.768;18.608;2024-01-30T06:39:11;0.00;;;0.00;;
11924;SDS011;6022;48.768;18.608;2024-01-30T06:41:38;0.00;;;0.00;;
11924;SDS011;6022;48.768;18.608;2024-01-30T06:44:08;0.00;;;0.00;;
11924;SDS011;6022;48.768;18.608;2024-01-30T06:46:38;0.00;;;0.00;;
11924;SDS011;6022;48.768;18.608;2024-01-30T06:49:06;0.00;;;0.00;;
11924;SDS011;6022;48.768;18.608;2024-01-30T06:51:33;0.00;;;0.00;;
11924;SDS011;6022;48.768;18.608;2024-01-30T06:54:00;0.00;;;0.00;;
11924;SDS011;6022;48.768;18.608;2024-01-30T06:56:28;0.00;;;0.00;;
11924;SDS011;6022;48.768;18.608;2024-01-30T06:58:55;0.00;;;0.00;;
11924;SDS011;6022;48.768;18.608;2024-01-30T07:01:30;0.00;;;0.00;;
11924;SDS011;6022;48.768;18.608;2024-01-30T07:04:01;0.00;;;0.00;;
11924;SDS011;6022;48.768;18.608;2024-01-30T07:06:28;0.00;;;0.00;;
11924;SDS011;6022;48.768;18.608;2024-01-30T07:08:56;0.00;;;0.00;;
11924;SDS011;6022;48.768;18.608;2024-01-30T07:11:29;0.00;;;0.00;;
11924;SDS011;6022;48.768;18.608;2024-01-30T07:13:56;0.00;;;0.00;;
11924;SDS011;6022;48.768;18.608;2024-01-30T07:16:24;0.20;;;0.20;;
11924;SDS011;6022;48.768;18.608;2024-01-30T07:18:51;0.00;;;0.00;;
11924;SDS011;6022;48.768;18.608;2024-01-30T07:21:19;0.73;;;0.73;;
11924;SDS011;6022;48.768;18.608;2024-01-30T07:23:48;0.00;;;0.00;;
11924;SDS011;6022;48.768;18.608;2024-01-30T07:26:16;0.00;;;0.00;;
11924;SDS011;6022;48.768;18.608;2024-01-30T07:28:43;0.27;;;0.27;;
11924;SDS011;6022;48.768;18.608;2024-01-30T07:31:11;0.00;;;0.00;;
11924;SDS011;6022;48.768;18.608;2024-01-30T07:33:38;0.00;;;0.00;;
11924;SDS011;6022;48.768;18.608;2024-01-30T07:36:06;0.00;;;0.00;;
11924;SDS011;6022;48.768;18.608;2024-01-30T07:38:33;0.13;;;0.13;;
11924;SDS011;6022;48.768;18.608;2024-01-30T07:41:01;0.40;;;0.40;;
11924;SDS011;6022;48.768;18.608;2024-01-30T07:43:29;0.00;;;0.00;;
11924;SDS011;6022;48.768;18.608;2024-01-30T07:45:56;0.30;;;0.30;;
11924;SDS011;6022;48.768;18.608;2024-01-30T07:48:24;0.00;;;0.00;;
11924;SDS011;6022;48.768;18.608;2024-01-30T07:50:51;0.50;;;0.33;;
11924;SDS011;6022;48.768;18.608;2024-01-30T07:53:18;0.00;;;0.00;;
11924;SDS011;6022;48.768;18.608;2024-01-30T07:55:46;0.00;;;0.00;;
11924;SDS011;6022;48.768;18.608;2024-01-30T07:58:16;0.10;;;0.10;;
11924;SDS011;6022;48.768;18.608;2024-01-30T08:00:43;0.23;;;0.23;;
11924;SDS011;6022;48.768;18.608;2024-01-30T08:03:11;0.90;;;0.80;;
11924;SDS011;6022;48.768;18.608;2024-01-30T08:05:39;0.60;;;0.60;;
11924;SDS011;6022;48.768;18.608;2024-01-30T08:08:06;0.53;;;0.53;;
11924;SDS011;6022;48.768;18.608;2024-01-30T08:10:33;0.00;;;0.00;;
11924;SDS011;6022;48.768;18.608;2024-01-30T08:13:01;0.70;;;0.40;;
11924;SDS011;6022;48.768;18.608;2024-01-30T08:15:31;1.17;;;1.07;;
11924;SDS011;6022;48.768;18.608;2024-01-30T08:18:01;0.30;;;0.30;;
11924;SDS011;6022;48.768;18.608;2024-01-30T08:20:30;0.40;;;0.40;;
11924;SDS011;6022;48.768;18.608;2024-01-30T08:22:57;1.60;;;1.43;;
11924;SDS011;6022;48.768;18.608;2024-01-30T08:25:26;0.90;;;0.60;;
11924;SDS011;6022;48.768;18.608;2024-01-30T08:27:54;0.47;;;0.47;;
11924;SDS011;6022;48.768;18.608;2024-01-30T08:30:21;0.70;;;0.70;;
11924;SDS011;6022;48.768;18.608;2024-01-30T08:32:48;0.83;;;0.83;;
11924;SDS011;6022;48.768;18.608;2024-01-30T08:35:15;1.63;;;1.53;;
11924;SDS011;6022;48.768;18.608;2024-01-30T08:37:43;1.00;;;0.83;;
11924;SDS011;6022;48.768;18.608;2024-01-30T08:40:10;0.50;;;0.50;;
11924;SDS011;6022;48.768;18.608;2024-01-30T08:42:38;0.93;;;0.93;;
11924;SDS011;6022;48.768;18.608;2024-01-30T08:45:05;0.70;;;0.70;;
11924;SDS011;6022;48.768;18.608;2024-01-30T08:47:33;1.10;;;1.03;;
11924;SDS011;6022;48.768;18.608;2024-01-30T08:50:00;0.40;;;0.40;;
11924;SDS011;6022;48.768;18.608;2024-01-30T08:52:28;0.60;;;0.60;;
11924;SDS011;6022;48.768;18.608;2024-01-30T08:55:00;0.63;;;0.63;;
11924;SDS011;6022;48.768;18.608;2024-01-30T08:57:27;0.10;;;0.10;;
11924;SDS011;6022;48.768;18.608;2024-01-30T08:59:56;1.60;;;1.50;;
11924;SDS011;6022;48.768;18.608;2024-01-30T09:02:23;1.17;;;1.07;;
11924;SDS011;6022;48.768;18.608;2024-01-30T09:04:50;1.27;;;1.17;;
11924;SDS011;6022;48.768;18.608;2024-01-30T09:07:18;0.83;;;0.80;;
11924;SDS011;6022;48.768;18.608;2024-01-30T09:09:45;0.47;;;0.43;;
11924;SDS011;6022;48.768;18.608;2024-01-30T09:12:15;1.77;;;1.23;;
11924;SDS011;6022;48.768;18.608;2024-01-30T09:14:46;0.30;;;0.30;;
11924;SDS011;6022;48.768;18.608;2024-01-30T09:17:22;0.60;;;0.60;;
11924;SDS011;6022;48.768;18.608;2024-01-30T09:19:49;0.77;;;0.77;;
11924;SDS011;6022;48.768;18.608;2024-01-30T09:22:17;1.17;;;1.07;;
11924;SDS011;6022;48.768;18.608;2024-01-30T09:24:44;1.60;;;1.27;;
11924;SDS011;6022;48.768;18.608;2024-01-30T09:27:12;1.50;;;0.83;;
11924;SDS011;6022;48.768;18.608;2024-01-30T09:29:39;0.87;;;0.87;;
11924;SDS011;6022;48.768;18.608;2024-01-30T09:32:06;1.47;;;0.47;;
11924;SDS011;6022;48.768;18.608;2024-01-30T09:34:36;1.57;;;0.70;;
11924;SDS011;6022;48.768;18.608;2024-01-30T09:37:03;0.43;;;0.43;;
11924;SDS011;6022;48.768;18.608;2024-01-30T09:39:31;0.90;;;0.90;;
11924;SDS011;6022;48.768;18.608;2024-01-30T09:42:18;2.07;;;1.00;;
11924;SDS011;6022;48.768;18.608;2024-01-30T09:44:58;0.57;;;0.50;;
11924;SDS011;6022;48.768;18.608;2024-01-30T09:47:25;2.43;;;1.13;;
11924;SDS011;6022;48.768;18.608;2024-01-30T09:49:53;1.70;;;1.40;;
11924;SDS011;6022;48.768;18.608;2024-01-30T09:52:23;0.90;;;0.90;;
11924;SDS011;6022;48.768;18.608;2024-01-30T09:54:50;3.03;;;1.83;;
11924;SDS011;6022;48.768;18.608;2024-01-30T09:57:19;0.80;;;0.80;;
11924;SDS011;6022;48.768;18.608;2024-01-30T09:59:47;1.50;;;1.40;;
11924;SDS011;6022;48.768;18.608;2024-01-30T10:02:14;3.20;;;1.93;;
11924;SDS011;6022;48.768;18.608;2024-01-30T10:04:44;1.93;;;0.97;;
11924;SDS011;6022;48.768;18.608;2024-01-30T10:07:11;1.73;;;0.73;;
11924;SDS011;6022;48.768;18.608;2024-01-30T10:09:39;1.50;;;1.40;;
11924;SDS011;6022;48.768;18.608;2024-01-30T10:12:07;1.50;;;1.40;;
11924;SDS011;6022;48.768;18.608;2024-01-30T10:14:39;4.43;;;1.70;;
11924;SDS011;6022;48.768;18.608;2024-01-30T10:17:10;2.20;;;1.90;;
11924;SDS011;6022;48.768;18.608;2024-01-30T10:19:53;1.33;;;1.10;;
11924;SDS011;6022;48.768;18.608;2024-01-30T10:22:20;3.10;;;1.17;;
11924;SDS011;6022;48.768;18.608;2024-01-30T10:24:48;0.70;;;0.70;;
11924;SDS011;6022;48.768;18.608;2024-01-30T10:27:15;2.33;;;1.13;;
11924;SDS011;6022;48.768;18.608;2024-01-30T10:29:42;0.47;;;0.47;;
11924;SDS011;6022;48.768;18.608;2024-01-30T10:32:09;1.73;;;1.13;;
11924;SDS011;6022;48.768;18.608;2024-01-30T10:34:37;1.23;;;1.00;;
11924;SDS011;6022;48.768;18.608;2024-01-30T10:37:08;0.90;;;0.90;;
11924;SDS011;6022;48.768;18.608;2024-01-30T10:39:44;0.73;;;0.73;;
11924;SDS011;6022;48.768;18.608;2024-01-30T10:42:13;1.17;;;1.13;;
11924;SDS011;6022;48.768;18.608;2024-01-30T10:47:48;0.03;;;0.03;;
11924;SDS011;6022;48.768;18.608;2024-01-30T10:50:17;0.97;;;0.70;;
11924;SDS011;6022;48.768;18.608;2024-01-30T10:52:45;1.10;;;0.87;;
11924;SDS011;6022;48.768;18.608;2024-01-30T10:55:14;1.67;;;1.37;;
11924;SDS011;6022;48.768;18.608;2024-01-30T10:57:44;1.57;;;1.30;;
11924;SDS011;6022;48.768;18.608;2024-01-30T11:00:12;0.57;;;0.57;;
11924;SDS011;6022;48.768;18.608;2024-01-30T11:02:51;0.37;;;0.37;;
11924;SDS011;6022;48.768;18.608;2024-01-30T11:05:25;0.47;;;0.47;;
11924;SDS011;6022;48.768;18.608;2024-01-30T11:07:59;0.63;;;0.63;;
11924;SDS011;6022;48.768;18.608;2024-01-30T11:10:47;2.07;;;0.90;;
11924;SDS011;6022;48.768;18.608;2024-01-30T11:13:14;0.57;;;0.57;;
11924;SDS011;6022;48.768;18.608;2024-01-30T11:15:42;0.30;;;0.30;;
11924;SDS011;6022;48.768;18.608;2024-01-30T11:18:10;0.50;;;0.50;;
11924;SDS011;6022;48.768;18.608;2024-01-30T11:20:37;0.60;;;0.60;;
11924;SDS011;6022;48.768;18.608;2024-01-30T11:23:11;0.77;;;0.77;;
11924;SDS011;6022;48.768;18.608;2024-01-30T11:25:38;0.50;;;0.50;;
11924;SDS011;6022;48.768;18.608;2024-01-30T11:28:06;0.60;;;0.60;;
11924;SDS011;6022;48.768;18.608;2024-01-30T11:30:42;0.93;;;0.80;;
11924;SDS011;6022;48.768;18.608;2024-01-30T11:33:11;0.10;;;0.10;;
11924;SDS011;6022;48.768;18.608;2024-01-30T11:35:41;1.23;;;0.80;;
11924;SDS011;6022;48.768;18.608;2024-01-30T11:38:11;2.53;;;0.60;;
11924;SDS011;6022;48.768;18.608;2024-01-30T11:40:44;0.63;;;0.63;;
11924;SDS011;6022;48.768;18.608;2024-01-30T11:43:12;0.40;;;0.40;;
11924;SDS011;6022;48.768;18.608;2024-01-30T11:45:39;0.37;;;0.37;;
11924;SDS011;6022;48.768;18.608;2024-01-30T11:48:07;0.47;;;0.47;;
11924;SDS011;6022;48.768;18.608;2024-01-30T11:50:37;0.30;;;0.30;;
11924;SDS011;6022;48.768;18.608;2024-01-30T11:53:06;0.13;;;0.13;;
11924;SDS011;6022;48.768;18.608;2024-01-30T11:55:36;0.27;;;0.17;;
11924;SDS011;6022;48.768;18.608;2024-01-30T11:58:04;0.50;;;0.50;;
11924;SDS011;6022;48.768;18.608;2024-01-30T12:00:32;1.43;;;1.33;;
11924;SDS011;6022;48.768;18.608;2024-01-30T12:03:01;2.73;;;1.17;;
11924;SDS011;6022;48.768;18.608;2024-01-30T12:05:30;1.13;;;1.03;;
11924;SDS011;6022;48.768;18.608;2024-01-30T12:07:57;0.33;;;0.33;;
11924;SDS011;6022;48.768;18.608;2024-01-30T12:10:28;0.57;;;0.57;;
11924;SDS011;6022;48.768;18.608;2024-01-30T12:12:56;0.97;;;0.67;;
11924;SDS011;6022;48.768;18.608;2024-01-30T12:15:25;4.47;;;0.60;;
11924;SDS011;6022;48.768;18.608;2024-01-30T12:17:52;0.80;;;0.70;;
11924;SDS011;6022;48.768;18.608;2024-01-30T12:20:33;2.60;;;1.20;;
11924;SDS011;6022;48.768;18.608;2024-01-30T12:23:00;0.70;;;0.70;;
11924;SDS011;6022;48.768;18.608;2024-01-30T12:25:27;0.50;;;0.50;;
11924;SDS011;6022;48.768;18.608;2024-01-30T12:27:55;0.50;;;0.50;;
11924;SDS011;6022;48.768;18.608;2024-01-30T12:30:22;0.83;;;0.77;;
11924;SDS011;6022;48.768;18.608;2024-01-30T12:32:50;0.00;;;0.00;;
11924;SDS011;6022;48.768;18.608;2024-01-30T12:35:18;0.60;;;0.57;;
11924;SDS011;6022;48.768;18.608;2024-01-30T12:37:48;0.83;;;0.40;;
11924;SDS011;6022;48.768;18.608;2024-01-30T12:40:16;0.73;;;0.73;;
11924;SDS011;6022;48.768;18.608;2024-01-30T12:42:46;0.73;;;0.73;;
11924;SDS011;6022;48.768;18.608;2024-01-30T12:45:17;0.63;;;0.50;;
11924;SDS011;6022;48.768;18.608;2024-01-30T12:47:49;0.33;;;0.33;;
11924;SDS011;6022;48.768;18.608;2024-01-30T12:50:17;0.53;;;0.53;;
11924;SDS011;6022;48.768;18.608;2024-01-30T12:52:45;0.37;;;0.37;;
11924;SDS011;6022;48.768;18.608;2024-01-30T12:55:15;0.73;;;0.43;;
11924;SDS011;6022;48.768;18.608;2024-01-30T12:57:44;0.73;;;0.20;;
11924;SDS011;6022;48.768;18.608;2024-01-30T13:00:12;0.20;;;0.20;;
11924;SDS011;6022;48.768;18.608;2024-01-30T13:02:40;0.50;;;0.50;;
11924;SDS011;6022;48.768;18.608;2024-01-30T13:05:09;0.70;;;0.70;;
11924;SDS011;6022;48.768;18.608;2024-01-30T13:07:37;0.30;;;0.30;;
11924;SDS011;6022;48.768;18.608;2024-01-30T13:10:04;0.10;;;0.10;;
11924;SDS011;6022;48.768;18.608;2024-01-30T13:12:32;0.70;;;0.70;;
11924;SDS011;6022;48.768;18.608;2024-01-30T13:15:00;0.27;;;0.27;;
11924;SDS011;6022;48.768;18.608;2024-01-30T13:17:28;0.90;;;0.90;;
11924;SDS011;6022;48.768;18.608;2024-01-30T13:19:59;1.60;;;0.80;;
11924;SDS011;6022;48.768;18.608;2024-01-30T13:22:36;0.67;;;0.47;;
11924;SDS011;6022;48.768;18.608;2024-01-30T13:25:06;0.00;;;0.00;;
11924;SDS011;6022;48.768;18.608;2024-01-30T13:27:34;0.30;;;0.30;;
11924;SDS011;6022;48.768;18.608;2024-01-30T13:30:04;0.63;;;0.63;;
11924;SDS011;6022;48.768;18.608;2024-01-30T13:32:34;0.40;;;0.33;;
11924;SDS011;6022;48.768;18.608;2024-01-30T13:35:02;0.00;;;0.00;;
11924;SDS011;6022;48.768;18.608;2024-01-30T13:37:30;0.40;;;0.17;;
11924;SDS011;6022;48.768;18.608;2024-01-30T13:39:57;0.33;;;0.23;;
11924;SDS011;6022;48.768;18.608;2024-01-30T13:42:27;0.17;;;0.17;;
11924;SDS011;6022;48.768;18.608;2024-01-30T13:44:54;0.20;;;0.20;;
11924;SDS011;6022;48.768;18.608;2024-01-30T13:47:24;0.03;;;0.03;;
11924;SDS011;6022;48.768;18.608;2024-01-30T13:49:51;0.17;;;0.17;;
11924;SDS011;6022;48.768;18.608;2024-01-30T13:52:20;0.00;;;0.00;;
11924;SDS011;6022;48.768;18.608;2024-01-30T13:54:51;0.00;;;0.00;;
11924;SDS011;6022;48.768;18.608;2024-01-30T13:57:18;0.43;;;0.43;;
11924;SDS011;6022;48.768;18.608;2024-01-30T13:59:48;0.00;;;0.00;;
11924;SDS011;6022;48.768;18.608;2024-01-30T14:02:15;0.77;;;0.77;;
11924;SDS011;6022;48.768;18.608;2024-01-30T14:04:43;0.30;;;0.30;;
11924;SDS011;6022;48.768;18.608;2024-01-30T14:07:10;0.10;;;0.10;;
11924;SDS011;6022;48.768;18.608;2024-01-30T14:09:37;0.17;;;0.17;;
11924;SDS011;6022;48.768;18.608;2024-01-30T14:12:05;0.10;;;0.10;;
11924;SDS011;6022;48.768;18.608;2024-01-30T14:14:32;0.20;;;0.20;;
11924;SDS011;6022;48.768;18.608;2024-01-30T14:16:59;0.20;;;0.20;;
11924;SDS011;6022;48.768;18.608;2024-01-30T14:19:27;0.33;;;0.33;;
11924;SDS011;6022;48.768;18.608;2024-01-30T14:21:54;0.47;;;0.47;;
11924;SDS011;6022;48.768;18.608;2024-01-30T14:24:21;0.27;;;0.27;;
11924;SDS011;6022;48.768;18.608;2024-01-30T14:26:48;0.30;;;0.30;;
11924;SDS011;6022;48.768;18.608;2024-01-30T14:29:16;0.00;;;0.00;;
11924;SDS011;6022;48.768;18.608;2024-01-30T14:31:43;0.60;;;0.60;;
11924;SDS011;6022;48.768;18.608;2024-01-30T14:34:10;1.33;;;0.83;;
11924;SDS011;6022;48.768;18.608;2024-01-30T14:36:39;0.97;;;0.43;;
11924;SDS011;6022;48.768;18.608;2024-01-30T14:39:07;0.10;;;0.10;;
11924;SDS011;6022;48.768;18.608;2024-01-30T14:41:36;0.00;;;0.00;;
11924;SDS011;6022;48.768;18.608;2024-01-30T14:44:09;0.00;;;0.00;;
11924;SDS011;6022;48.768;18.608;2024-01-30T14:46:36;0.47;;;0.37;;
11924;SDS011;6022;48.768;18.608;2024-01-30T14:49:12;0.00;;;0.00;;
11924;SDS011;6022;48.768;18.608;2024-01-30T14:51:42;0.30;;;0.30;;
11924;SDS011;6022;48.768;18.608;2024-01-30T14:54:12;0.57;;;0.57;;
11924;SDS011;6022;48.768;18.608;2024-01-30T14:56:39;0.00;;;0.00;;
11924;SDS011;6022;48.768;18.608;2024-01-30T14:59:07;0.20;;;0.20;;